Time;durP1;ratioP1;P1;durP2;ratioP2;P2;SDS_P1;SDS_P2;PMS_P1;PMS_P2;Temp;Humidity;BMP_temperature;BMP_pressure;BME280_temperature;BME280_humidity;BME280_pressure;Samples;Min_cycle;Max_cycle;Signal;HPM_P1;HPM_P2
2021/03/15 00:00:57;;;;;;;9.13;3.40;;;;;;;5.78;93.01;100987.56;5016330;28;20029;-81
2021/03/15 00:03:23;;;;;;;7.10;3.00;;;;;;;5.85;92.76;100989.56;5017031;28;20342;-81
2021/03/15 00:05:48;;;;;;;6.60;2.80;;;;;;;5.88;92.38;100980.41;5017218;28;20490;-81
2021/03/15 00:08:13;;;;;;;9.67;3.30;;;;;;;5.81;93.00;100980.03;5016389;28;20372;-81
2021/03/15 00:10:39;;;;;;;14.63;4.17;;;;;;;5.81;93.50;100974.94;5015978;28;20312;-82
2021/03/15 00:13:05;;;;;;;13.48;3.70;;;;;;;5.83;93.15;100975.88;5017066;28;20028;-83
2021/03/15 00:15:31;;;;;;;11.30;4.00;;;;;;;5.86;92.82;100982.03;5016445;28;20447;-81
2021/03/15 00:17:56;;;;;;;13.07;4.72;;;;;;;5.90;92.75;100972.88;5034110;28;20032;-82
2021/03/15 00:20:22;;;;;;;7.70;3.85;;;;;;;5.84;93.07;100977.63;5034349;28;20029;-79
2021/03/15 00:22:49;;;;;;;11.45;4.80;;;;;;;5.86;93.26;100970.94;5016527;28;20474;-79
2021/03/15 00:25:15;;;;;;;;;;;;;;;5.89;92.74;100974.53;5016791;28;20084;-81
2021/03/15 00:27:40;;;;;;;13.33;4.27;;;;;;;5.96;92.89;100978.22;5016257;28;20409;-81
2021/03/15 00:30:08;;;;;;;8.70;4.13;;;;;;;6.01;92.37;100970.78;5016356;28;20112;-80
2021/03/15 00:32:35;;;;;;;11.23;4.90;;;;;;;5.95;92.72;100967.97;5033415;28;20427;-80
2021/03/15 00:35:00;;;;;;;10.73;5.27;;;;;;;6.00;92.56;100964.81;5016163;28;20064;-80
2021/03/15 00:37:25;;;;;;;12.25;5.72;;;;;;;6.01;92.25;100971.66;5016011;28;20040;-78
2021/03/15 00:39:51;;;;;;;10.07;5.27;;;;;;;6.04;92.41;100971.78;5016305;28;20037;-78
2021/03/15 00:42:16;;;;;;;11.53;5.07;;;;;;;6.08;92.00;100973.66;5015540;28;20291;-81
2021/03/15 00:44:41;;;;;;;13.23;4.90;;;;;;;6.04;92.21;100968.34;5015437;28;20035;-81
2021/03/15 00:47:07;;;;;;;13.47;5.77;;;;;;;6.01;92.41;100965.66;5033667;28;20120;-80
2021/03/15 00:49:32;;;;;;;9.53;4.80;;;;;;;6.02;92.22;100965.75;5015991;28;20276;-80
2021/03/15 00:51:58;;;;;;;9.60;4.88;;;;;;;5.97;92.59;100974.00;5015348;28;20276;-79
2021/03/15 00:54:23;;;;;;;13.95;5.13;;;;;;;5.98;92.73;100970.63;5014680;28;20025;-80
2021/03/15 00:56:49;;;;;;;15.48;6.15;;;;;;;5.96;92.81;100968.03;5033663;28;20037;-79
2021/03/15 00:59:14;;;;;;;12.05;5.90;;;;;;;5.94;92.84;100972.19;5015486;28;20127;-81
2021/03/15 01:01:40;;;;;;;12.75;5.30;;;;;;;5.93;93.10;100973.00;5032845;28;20028;-80
2021/03/15 01:04:06;;;;;;;;;;;;;;;5.92;92.98;100963.59;5015855;28;20030;-78
2021/03/15 01:06:31;;;;;;;16.50;6.20;;;;;;;5.89;93.06;100973.63;5033506;28;19920;-79
2021/03/15 01:08:57;;;;;;;14.03;6.53;;;;;;;5.89;93.29;100972.00;5033116;28;20029;-86
2021/03/15 01:11:24;;;;;;;16.07;6.40;;;;;;;5.89;93.53;100977.09;5015187;28;20271;-79
2021/03/15 01:13:49;;;;;;;13.83;6.20;;;;;;;5.95;93.47;100978.16;5015327;28;20546;-80
2021/03/15 01:16:15;;;;;;;19.23;6.10;;;;;;;5.95;93.34;100975.59;5015398;28;20116;-80
2021/03/15 01:18:40;;;;;;;16.93;6.63;;;;;;;5.92;93.46;100979.78;5015050;28;20156;-80
2021/03/15 01:21:05;;;;;;;17.05;5.45;;;;;;;5.91;93.62;100974.59;5033197;28;20036;-80
2021/03/15 01:23:30;;;;;;;16.83;5.33;;;;;;;5.92;93.43;100981.44;5015146;28;20060;-79
2021/03/15 01:25:56;;;;;;;13.73;4.10;;;;;;;5.87;93.24;100975.25;5013970;28;20268;-81
2021/03/15 01:28:21;;;;;;;16.25;5.60;;;;;;;5.87;93.28;100977.78;5014502;28;20017;-82
2021/03/15 01:30:48;;;;;;;13.15;4.35;;;;;;;5.90;93.09;100977.97;5032830;28;20037;-82
2021/03/15 01:33:14;;;;;;;17.50;3.93;;;;;;;5.85;93.20;100981.91;5015276;28;20511;-85
2021/03/15 01:35:40;;;;;;;13.30;3.80;;;;;;;5.86;93.39;100989.66;5014763;28;20067;-80
2021/03/15 01:38:06;;;;;;;24.35;6.82;;;;;;;5.87;93.17;100980.34;5015021;28;20018;-79
2021/03/15 01:40:34;;;;;;;10.65;2.97;;;;;;;5.84;92.95;100978.50;5032540;28;20483;-80
2021/03/15 01:42:59;;;;;;;16.77;3.53;;;;;;;5.78;93.47;100988.44;5015111;28;20386;-80
2021/03/15 01:45:25;;;;;;;15.52;3.45;;;;;;;5.75;93.14;100987.41;5033721;28;20033;-79
2021/03/15 01:47:51;;;;;;;9.48;2.35;;;;;;;5.71;93.05;100981.31;5015964;28;20036;-80
2021/03/15 01:50:17;;;;;;;10.45;3.03;;;;;;;5.62;93.43;100988.53;5017551;28;20079;-79
2021/03/15 01:52:44;;;;;;;13.07;2.43;;;;;;;5.65;93.51;100990.38;5016758;28;20597;-81
2021/03/15 01:55:10;;;;;;;;;;;;;;;5.62;93.46;101002.16;5017090;28;20017;-82
2021/03/15 01:57:36;;;;;;;9.87;2.30;;;;;;;5.61;93.48;101008.06;5016828;28;19921;-82
2021/03/15 02:00:04;;;;;;;11.87;2.73;;;;;;;5.59;93.46;101006.25;5016091;28;20040;-82
2021/03/15 02:02:30;;;;;;;7.03;2.40;;;;;;;5.61;93.75;101004.63;5032306;28;20490;-80
2021/03/15 02:04:55;;;;;;;10.50;2.22;;;;;;;5.52;93.45;101005.06;5032259;28;20083;-80
2021/03/15 02:07:21;;;;;;;13.52;2.40;;;;;;;5.52;93.72;101006.75;5015100;28;20551;-79
2021/03/15 02:09:46;;;;;;;10.73;2.65;;;;;;;5.49;93.60;101004.94;5032260;28;20036;-82
2021/03/15 02:12:48;;;;;;;9.43;3.17;;;;;;;5.45;93.88;101004.72;5014516;28;20376;-81
2021/03/15 02:15:25;;;;;;;8.40;2.57;;;;;;;5.46;94.10;101006.47;5032407;28;20768;-80
2021/03/15 02:17:51;;;;;;;9.50;2.77;;;;;;;5.43;94.22;101004.66;5015290;28;20088;-80
2021/03/15 02:20:37;;;;;;;10.57;2.73;;;;;;;5.50;94.08;101006.66;5014835;28;20041;-79
2021/03/15 02:23:12;;;;;;;18.15;4.72;;;;;;;5.46;93.29;101007.34;5013394;28;20029;-81
2021/03/15 02:26:15;;;;;;;10.60;3.37;;;;;;;5.41;93.58;101008.81;5031737;28;20030;-79
2021/03/15 02:28:46;;;;;;;8.97;3.90;;;;;;;5.40;93.73;101011.28;5013615;28;20447;-80
2021/03/15 02:31:37;;;;;;;10.27;3.40;;;;;;;5.42;93.95;101007.13;5014527;28;20030;-81
2021/03/15 02:34:14;;;;;;;13.30;3.87;;;;;;;5.38;93.72;101008.66;5014513;28;20025;-81
2021/03/15 02:36:41;;;;;;;;;;;;;;;5.45;93.53;101020.88;5032600;28;20104;-80
2021/03/15 02:39:11;;;;;;;15.10;3.67;;;;;;;5.47;93.15;101016.72;5014295;28;19913;-80
2021/03/15 02:41:39;;;;;;;9.63;2.80;;;;;;;5.46;92.88;101021.75;5014213;28;20036;-82
2021/03/15 02:44:08;;;;;;;16.67;3.27;;;;;;;5.48;93.19;101023.56;5031859;28;20022;-82
2021/03/15 02:46:35;;;;;;;18.53;3.87;;;;;;;5.47;93.26;101026.91;5031964;28;20048;-82
2021/03/15 02:49:05;;;;;;;14.80;3.63;;;;;;;5.46;93.23;101026.84;5032471;28;20060;-80
2021/03/15 02:51:33;;;;;;;11.23;3.43;;;;;;;5.47;93.55;101041.31;5032418;28;20483;-84
2021/03/15 02:54:01;;;;;;;13.10;3.93;;;;;;;5.48;93.28;101048.16;5014073;28;20025;-81
2021/03/15 02:56:30;;;;;;;13.00;3.67;;;;;;;5.49;93.30;101045.69;5014352;28;20024;-81
2021/03/15 02:58:58;;;;;;;10.37;3.77;;;;;;;5.43;93.61;101055.59;5014594;28;20053;-80
2021/03/15 03:01:24;;;;;;;13.47;3.27;;;;;;;5.43;93.34;101060.69;5032306;28;20017;-81
2021/03/15 03:03:53;;;;;;;10.87;4.40;;;;;;;5.39;93.66;101058.81;5014341;28;20030;-81
2021/03/15 03:06:21;;;;;;;15.77;4.50;;;;;;;5.43;93.03;101053.06;5031000;28;20025;-79
2021/03/15 03:08:49;;;;;;;14.13;3.80;;;;;;;5.45;92.90;101065.84;5031777;28;20056;-82
2021/03/15 03:11:17;;;;;;;9.57;3.33;;;;;;;5.48;92.56;101059.22;5030271;28;20075;-80
2021/03/15 03:13:44;;;;;;;11.87;3.27;;;;;;;5.47;92.14;101072.78;5013906;28;20013;-80
2021/03/15 03:16:10;;;;;;;11.50;4.07;;;;;;;5.45;92.69;101068.41;5014501;28;20017;-82
2021/03/15 03:18:38;;;;;;;17.73;4.32;;;;;;;5.47;92.39;101067.69;5035346;28;20040;-83
2021/03/15 03:21:06;;;;;;;10.40;4.10;;;;;;;5.46;92.06;101070.16;5035705;28;20025;-80
2021/03/15 03:23:34;;;;;;;18.20;4.03;;;;;;;5.43;92.09;101067.47;5035456;28;20029;-82
2021/03/15 03:26:00;;;;;;;9.80;4.43;;;;;;;5.37;92.21;101075.69;5017600;28;20391;-82
2021/03/15 03:28:27;;;;;;;14.75;4.45;;;;;;;5.38;91.93;101067.25;5017324;28;20032;-83
2021/03/15 03:30:55;;;;;;;14.87;4.67;;;;;;;5.38;91.79;101067.25;5034561;28;20022;-80
2021/03/15 03:33:20;;;;;;;17.07;4.33;;;;;;;5.35;92.19;101076.41;5017496;28;20104;-82
2021/03/15 03:35:47;;;;;;;14.75;4.72;;;;;;;5.33;92.07;101076.34;5017108;28;20589;-81
2021/03/15 03:38:13;;;;;;;11.73;5.13;;;;;;;5.35;92.33;101076.41;5016820;28;20036;-83
2021/03/15 03:40:38;;;;;;;18.13;5.03;;;;;;;5.30;91.90;101083.84;5016639;28;20415;-83
2021/03/15 03:43:03;;;;;;;14.32;4.85;;;;;;;5.18;92.45;101078.13;5016873;28;20025;-82
2021/03/15 03:45:29;;;;;;;22.27;5.45;;;;;;;5.20;92.55;101082.53;5016813;28;20550;-82
2021/03/15 03:47:55;;;;;;;14.07;5.22;;;;;;;5.17;92.92;101081.47;5016782;28;20128;-80
2021/03/15 03:50:23;;;;;;;18.70;5.70;;;;;;;5.18;93.13;101094.28;5017805;28;20470;-80
2021/03/15 03:52:59;;;;;;;24.50;6.40;;;;;;;5.25;93.63;101105.69;5034437;28;20037;-82
2021/03/15 03:55:29;;;;;;;17.55;6.57;;;;;;;5.27;93.33;101098.97;5017026;28;20067;-82
2021/03/15 03:57:56;;;;;;;24.17;7.03;;;;;;;5.26;93.32;101102.34;5016824;28;20037;-80
2021/03/15 04:00:22;;;;;;;13.83;6.10;;;;;;;5.39;92.94;101104.66;5034742;28;20392;-80
2021/03/15 04:03:18;;;;;;;18.95;6.25;;;;;;;5.34;92.79;101108.66;5017014;28;20029;-81
2021/03/15 04:05:52;;;;;;;9.37;5.03;;;;;;;5.34;91.71;101112.88;5013115;28;20418;-82
2021/03/15 04:08:26;;;;;;;16.77;5.60;;;;;;;5.35;92.30;101120.59;5016388;28;20044;-82
2021/03/15 04:10:53;;;;;;;14.23;5.60;;;;;;;5.43;91.91;101116.75;5015897;28;20398;-82
2021/03/15 04:13:22;;;;;;;18.13;6.07;;;;;;;5.41;91.99;101128.53;5016420;28;20116;-82
2021/03/15 04:15:48;;;;;;;16.60;5.00;;;;;;;5.42;91.93;101127.72;5016434;28;20021;-82
2021/03/15 04:18:18;;;;;;;16.52;4.70;;;;;;;5.44;91.27;101127.81;5017284;28;20443;-82
2021/03/15 04:20:47;;;;;;;22.43;5.77;;;;;;;5.41;91.03;101136.19;5016731;28;20031;-81
2021/03/15 04:23:16;;;;;;;15.77;5.53;;;;;;;5.44;91.28;101145.63;5016261;28;20029;-82
2021/03/15 04:25:44;;;;;;;17.47;5.20;;;;;;;5.49;91.34;101142.50;5015928;28;20075;-81
2021/03/15 04:28:11;;;;;;;20.90;5.90;;;;;;;5.46;91.07;101152.56;5033430;28;20051;-84
2021/03/15 04:30:37;;;;;;;13.33;5.30;;;;;;;5.48;91.32;101148.41;5016197;28;20108;-83
2021/03/15 04:33:03;;;;;;;17.17;5.10;;;;;;;5.49;91.39;101152.69;5015548;28;20475;-81
2021/03/15 04:35:34;;;;;;;12.13;4.90;;;;;;;5.53;90.78;101154.63;5034276;28;20078;-84
2021/03/15 04:38:01;;;;;;;15.07;5.20;;;;;;;5.55;90.55;101155.56;5016019;28;20115;-80
2021/03/15 04:40:29;;;;;;;20.37;4.13;;;;;;;5.54;90.55;101164.03;5032818;28;20030;-86
2021/03/15 04:43:02;;;;;;;16.73;4.60;;;;;;;5.51;90.98;101166.38;5033572;28;20044;-85
2021/03/15 04:45:29;;;;;;;13.87;5.27;;;;;;;5.49;91.38;101167.13;5033374;28;20479;-82
2021/03/15 04:47:57;;;;;;;13.57;4.37;;;;;;;5.54;90.86;101171.66;5016105;28;20602;-86
2021/03/15 04:50:23;;;;;;;8.17;3.47;;;;;;;5.55;91.03;101175.97;5015682;28;20437;-82
2021/03/15 04:52:49;;;;;;;11.45;4.57;;;;;;;5.56;90.78;101169.19;5033441;28;20120;-80
2021/03/15 04:55:14;;;;;;;12.70;4.53;;;;;;;5.53;91.20;101182.66;5033610;28;20028;-80
2021/03/15 04:57:41;;;;;;;15.30;4.63;;;;;;;5.55;91.15;101186.16;5033478;28;20029;-82
2021/03/15 05:00:11;;;;;;;13.53;4.73;;;;;;;5.56;90.93;101189.59;5015838;28;20045;-84
2021/03/15 05:02:38;;;;;;;8.37;3.60;;;;;;;5.59;90.90;101190.59;5014444;28;20056;-81
2021/03/15 05:05:05;;;;;;;14.53;4.00;;;;;;;5.57;91.13;101194.75;5015276;28;20159;-82
2021/03/15 05:07:31;;;;;;;12.57;4.00;;;;;;;5.56;90.79;101195.56;5033516;28;20061;-84
2021/03/15 05:09:59;;;;;;;11.23;3.80;;;;;;;5.55;90.89;101195.47;5033026;28;20107;-81
2021/03/15 05:12:26;;;;;;;12.73;3.63;;;;;;;5.61;90.04;101194.09;5033326;28;20027;-83
2021/03/15 05:14:52;;;;;;;9.87;3.20;;;;;;;5.62;90.30;101194.97;5033129;28;20021;-79
2021/03/15 05:17:20;;;;;;;13.13;3.30;;;;;;;5.61;90.54;101195.78;5015411;28;20025;-81
2021/03/15 05:19:46;;;;;;;19.70;3.63;;;;;;;5.59;90.27;101200.78;5033134;28;20037;-83
2021/03/15 05:22:12;;;;;;;8.73;2.93;;;;;;;5.65;90.39;101199.34;5014709;28;20039;-82
2021/03/15 05:24:38;;;;;;;;;;;;;;;5.56;90.00;101203.19;5015561;28;20053;-81
2021/03/15 05:27:05;;;;;;;11.97;2.93;;;;;;;5.55;90.02;101211.63;5015553;28;19912;-84
2021/03/15 05:29:32;;;;;;;15.20;2.67;;;;;;;5.54;89.34;101212.44;5015918;28;20491;-80
2021/03/15 05:31:57;;;;;;;11.80;2.80;;;;;;;5.53;88.74;101213.25;5030721;28;20025;-81
2021/03/15 05:34:24;;;;;;;7.65;2.33;;;;;;;5.55;88.54;101211.63;5015820;28;20087;-81
2021/03/15 05:36:51;;;;;;;12.33;2.23;;;;;;;5.57;88.73;101217.69;5015755;28;20723;-81
2021/03/15 05:39:16;;;;;;;10.43;2.50;;;;;;;5.57;88.17;101214.25;5014715;28;20028;-79
2021/03/15 05:42:14;;;;;;;15.02;2.33;;;;;;;5.53;88.73;101220.88;5032662;28;20033;-81
2021/03/15 05:44:48;;;;;;;;;;;;;;;5.52;88.24;101216.56;5014608;28;20036;-80
2021/03/15 05:47:48;;;;;;;13.90;2.10;;;;;;;5.47;89.01;101218.00;5031776;28;20016;-79
2021/03/15 05:50:44;;;;;;;18.77;2.93;;;;;;;5.47;88.62;101229.88;5014079;28;20506;-82
2021/03/15 05:53:28;;;;;;;10.70;2.07;;;;;;;5.47;88.35;101229.88;5015056;28;20029;-80
2021/03/15 05:56:05;;;;;;;14.83;2.53;;;;;;;5.42;88.74;101224.53;5014806;28;20495;-83
2021/03/15 05:58:31;;;;;;;12.83;2.50;;;;;;;5.45;88.05;101239.97;5015850;28;20025;-81
2021/03/15 06:01:17;;;;;;;13.53;1.97;;;;;;;5.45;88.51;101231.47;5014248;28;20418;-81
2021/03/15 06:03:52;;;;;;;15.23;2.20;;;;;;;5.42;89.10;101238.97;5031833;28;20040;-79
2021/03/15 06:06:21;;;;;;;16.73;2.87;;;;;;;5.44;89.09;101239.91;5014131;28;20029;-79
2021/03/15 06:08:51;;;;;;;9.63;1.87;;;;;;;5.46;89.27;101244.28;5031790;28;20026;-80
2021/03/15 06:11:20;;;;;;;13.83;2.00;;;;;;;5.46;89.35;101244.28;5013734;28;20087;-80
2021/03/15 06:13:46;;;;;;;9.27;2.30;;;;;;;5.48;89.67;101244.34;5013509;28;20200;-81
2021/03/15 06:16:12;;;;;;;13.27;1.90;;;;;;;5.48;89.90;101252.88;5031638;28;20036;-77
2021/03/15 06:18:38;;;;;;;10.77;2.07;;;;;;;5.50;89.56;101250.41;5031860;28;20108;-79
2021/03/15 06:21:05;;;;;;;15.77;2.30;;;;;;;5.49;89.31;101252.06;5032132;28;20103;-80
2021/03/15 06:23:31;;;;;;;13.10;2.30;;;;;;;5.44;89.83;101250.97;5030788;28;20025;-78
2021/03/15 06:25:56;;;;;;;19.98;2.10;;;;;;;5.45;90.17;101260.38;5013971;28;20033;-78
2021/03/15 06:28:23;;;;;;;17.67;2.58;;;;;;;5.47;89.98;101265.53;5032548;28;20026;-80
2021/03/15 06:30:50;;;;;;;18.03;2.07;;;;;;;5.43;90.19;101274.69;5013087;28;20037;-81
2021/03/15 06:33:17;;;;;;;25.97;3.33;;;;;;;5.43;90.37;101263.63;5031704;28;20029;-82
2021/03/15 06:35:45;;;;;;;17.23;2.37;;;;;;;5.39;90.71;101272.78;5014891;28;20029;-81
2021/03/15 06:38:10;;;;;;;18.20;3.67;;;;;;;5.36;90.66;101272.66;5031470;28;20041;-80
2021/03/15 06:40:40;;;;;;;17.20;2.35;;;;;;;5.34;90.87;101276.78;5013169;28;20398;-81
2021/03/15 06:43:11;;;;;;;16.50;1.63;;;;;;;5.32;90.64;101281.81;5013644;28;20029;-80
2021/03/15 06:45:36;;;;;;;20.83;2.47;;;;;;;5.37;90.75;101287.13;5031534;28;20041;-80
2021/03/15 06:48:03;;;;;;;14.23;1.92;;;;;;;5.73;89.54;101293.22;5031763;28;20457;-81
2021/03/15 06:50:28;;;;;;;19.17;2.07;;;;;;;5.80;88.77;101292.72;5013727;28;20036;-81
2021/03/15 06:52:53;;;;;;;11.82;1.77;;;;;;;5.71;88.56;101297.38;5017882;28;20478;-81
2021/03/15 06:55:21;;;;;;;11.98;2.38;;;;;;;5.66;88.97;101295.38;5017674;28;20444;-81
2021/03/15 06:57:46;;;;;;;21.50;2.43;;;;;;;5.62;89.37;101302.88;5017398;28;20028;-79
2021/03/15 07:00:12;;;;;;;19.50;2.23;;;;;;;5.98;89.57;101309.78;5017481;28;20025;-80
2021/03/15 07:02:37;;;;;;;15.35;2.05;;;;;;;6.59;86.26;101313.63;5017598;28;20026;-81
2021/03/15 07:05:14;;;;;;;9.77;2.10;;;;;;;6.81;84.74;101318.91;5035344;28;20542;-80
2021/03/15 07:07:48;;;;;;;13.38;2.65;;;;;;;6.71;84.73;101324.41;5017550;28;20759;-79
2021/03/15 07:10:41;;;;;;;19.50;2.73;;;;;;;7.09;84.41;101335.50;5017547;28;20080;-81
2021/03/15 07:13:08;;;;;;;20.17;3.03;;;;;;;7.20;82.94;101324.09;5014466;28;20738;-80
2021/03/15 07:15:34;;;;;;;13.83;1.93;;;;;;;7.04;83.49;101337.84;5035454;28;20028;-79
2021/03/15 07:18:13;;;;;;;19.02;3.38;;;;;;;6.71;84.37;101349.06;5017697;28;20025;-79
2021/03/15 07:20:44;;;;;;;25.57;2.80;;;;;;;6.81;85.19;101344.44;5016601;28;20572;-79
2021/03/15 07:23:10;;;;;;;14.33;1.87;;;;;;;6.84;84.14;101352.28;5017879;28;20112;-80
2021/03/15 07:25:35;;;;;;;10.57;2.30;;;;;;;6.78;84.42;101344.28;5017468;28;20108;-79
2021/03/15 07:28:01;;;;;;;23.75;2.65;;;;;;;6.88;83.74;101349.84;5035298;28;20029;-81
2021/03/15 07:30:27;;;;;;;14.27;2.20;;;;;;;7.49;83.45;101346.72;5016634;28;20022;-81
2021/03/15 07:32:54;;;;;;;17.90;2.70;;;;;;;7.88;80.87;101356.91;5035022;28;20031;-81
2021/03/15 07:35:25;;;;;;;14.67;1.97;;;;;;;8.37;79.34;101354.72;5035156;28;20030;-81
2021/03/15 07:37:51;;;;;;;21.00;2.67;;;;;;;8.37;78.46;101364.09;5033733;28;20045;-81
2021/03/15 07:40:30;;;;;;;20.35;2.40;;;;;;;8.90;76.28;101355.13;5035335;28;20029;-79
2021/03/15 07:43:13;;;;;;;22.60;2.67;;;;;;;9.10;74.80;101359.28;5033874;28;20084;-80
2021/03/15 07:45:43;;;;;;;14.67;2.60;;;;;;;9.57;73.67;101363.63;5017018;28;20022;-80
2021/03/15 07:48:23;;;;;;;13.13;2.17;;;;;;;10.07;70.31;101368.75;5033158;28;20027;-77
2021/03/15 07:50:58;;;;;;;19.23;2.30;;;;;;;10.24;68.62;101380.53;5034427;28;20100;-78
2021/03/15 07:53:35;;;;;;;17.50;2.00;;;;;;;11.02;68.15;101381.31;5015699;28;20439;-79
2021/03/15 07:56:00;;;;;;;15.57;2.10;;;;;;;10.98;66.70;101384.63;5016185;28;20109;-79
2021/03/15 07:58:29;;;;;;;14.18;2.72;;;;;;;11.38;64.86;101381.56;5034124;28;20443;-78
2021/03/15 08:00:56;;;;;;;15.23;1.92;;;;;;;10.59;65.36;101386.81;5033773;28;20030;-78
2021/03/15 08:03:23;;;;;;;20.35;2.10;;;;;;;9.51;67.46;101389.06;5031518;28;20025;-78
2021/03/15 08:05:49;;;;;;;14.93;1.83;;;;;;;8.88;70.53;101418.25;5015448;28;20067;-77
2021/03/15 08:08:15;;;;;;;15.50;2.63;;;;;;;8.02;73.76;101404.41;5032121;28;20376;-76
2021/03/15 08:10:41;;;;;;;;;;;;;;;8.15;74.78;101410.06;5031064;28;20095;-76
2021/03/15 08:13:08;;;;;;;15.83;2.27;;;;;;;8.95;70.86;101392.03;5031406;28;19913;-77
2021/03/15 08:15:35;;;;;;;11.60;2.10;;;;;;;8.50;70.82;101402.22;5013819;28;20087;-77
2021/03/15 08:18:01;;;;;;;21.47;2.90;;;;;;;8.09;72.34;101405.53;5031404;28;20033;-77
2021/03/15 08:20:28;;;;;;;15.57;1.93;;;;;;;8.22;74.25;101412.06;5013816;28;20025;-75
2021/03/15 08:22:58;;;;;;;13.97;1.83;;;;;;;9.18;70.33;101411.75;5013483;28;20022;-76
2021/03/15 08:25:25;;;;;;;15.17;1.93;;;;;;;8.82;69.91;101416.31;5031496;28;20026;-76
2021/03/15 08:27:51;;;;;;;14.37;2.13;;;;;;;8.73;71.37;101409.13;5013899;28;20090;-77
2021/03/15 08:30:22;;;;;;;18.02;1.95;;;;;;;8.62;71.75;101420.63;5013402;28;20032;-77
2021/03/15 08:32:48;;;;;;;8.27;1.73;;;;;;;8.02;72.78;101419.75;5013490;28;20021;-78
2021/03/15 08:35:14;;;;;;;;;;;;;;;7.60;74.73;101439.22;5013996;28;20112;-79
2021/03/15 08:38:00;;;;;;;10.83;1.60;;;;;;;7.13;78.10;101452.34;5031489;28;20392;-77
2021/03/15 08:40:43;;;;;;;10.60;1.97;;;;;;;6.22;82.00;101485.34;5014135;28;20112;-78
2021/03/15 08:43:18;;;;;;;7.97;1.13;;;;;;;5.43;83.49;101508.22;5014151;28;20120;-79
2021/03/15 08:45:47;;;;;;;11.23;1.50;;;;;;;5.08;85.26;101508.81;5015257;28;20029;-78
2021/03/15 08:48:13;;;;;;;14.37;1.60;;;;;;;4.93;86.17;101503.75;5014835;28;20029;-78
2021/03/15 08:50:38;;;;;;;12.98;2.47;;;;;;;4.82;85.88;101484.41;5014683;28;20029;-78
2021/03/15 08:53:03;;;;;;;5.27;1.30;;;;;;;4.91;86.36;101480.75;5032176;28;20096;-78
2021/03/15 08:55:48;;;;;;;10.27;1.15;;;;;;;5.21;84.06;101471.41;5014596;28;20268;-79
2021/03/15 08:58:36;;;;;;;6.93;1.23;;;;;;;6.47;82.50;101484.00;5014017;28;20025;-77
2021/03/15 09:01:04;;;;;;;18.20;1.67;;;;;;;7.77;76.28;101479.19;5013251;28;20538;-78
2021/03/15 09:03:50;;;;;;;10.27;1.27;;;;;;;9.38;70.76;101470.59;5013769;28;20381;-79
2021/03/15 09:06:37;;;;;;;9.52;1.10;;;;;;;11.23;66.00;101474.56;5013534;28;20033;-78
2021/03/15 09:09:12;;;;;;;9.48;1.33;;;;;;;11.94;63.26;101476.66;5012576;28;20067;-78
2021/03/15 09:11:38;;;;;;;10.27;1.00;;;;;;;12.71;60.37;101468.47;5012997;28;20108;-78
2021/03/15 09:14:15;;;;;;;10.20;1.20;;;;;;;12.94;62.47;101476.72;5012883;28;20641;-77
2021/03/15 09:16:41;;;;;;;7.97;1.05;;;;;;;11.14;62.26;101483.69;5030856;28;20025;-76
2021/03/15 09:19:18;;;;;;;10.48;1.42;;;;;;;9.88;67.61;101488.75;5013282;28;20554;-76
2021/03/15 09:21:45;;;;;;;;;;;;;;;9.09;71.46;101489.94;5031165;28;20093;-76
2021/03/15 09:24:34;;;;;;;8.15;1.30;;;;;;;8.54;73.62;101498.81;5012778;28;20031;-77
2021/03/15 09:27:03;;;;;;;16.53;2.03;;;;;;;7.99;75.41;101496.38;5013227;28;20037;-76
2021/03/15 09:29:34;;;;;;;17.77;1.83;;;;;;;7.60;76.52;101502.25;5013024;28;20052;-76
2021/03/15 09:32:05;;;;;;;11.00;2.90;;;;;;;7.49;78.71;101515.44;5011969;28;20483;-77
2021/03/15 09:34:31;;;;;;;14.73;2.10;;;;;;;7.69;77.76;101516.34;5013083;28;20022;-76
2021/03/15 09:37:04;;;;;;;19.30;2.77;;;;;;;8.14;78.53;101510.69;5107545;27;20716;-77
2021/03/15 09:39:31;;;;;;;15.07;2.70;;;;;;;8.37;76.22;101517.69;5118414;28;20027;-76
2021/03/15 09:41:59;;;;;;;16.80;2.10;;;;;;;8.46;75.18;101509.56;5127251;27;20236;-76
2021/03/15 09:44:26;;;;;;;17.20;2.00;;;;;;;8.79;73.16;101517.78;5114002;27;20547;-77
2021/03/15 09:46:53;;;;;;;20.90;2.90;;;;;;;8.88;72.78;101513.03;5105721;28;20111;-76
2021/03/15 09:49:31;;;;;;;21.47;2.50;;;;;;;8.63;72.77;101514.56;5114893;27;20054;-76
2021/03/15 09:52:08;;;;;;;21.43;3.10;;;;;;;8.58;74.17;101526.31;5125229;27;20121;-77
2021/03/15 09:54:39;;;;;;;16.83;2.50;;;;;;;8.67;72.68;101511.31;5124740;27;20063;-76
2021/03/15 09:57:04;;;;;;;20.77;2.17;;;;;;;9.15;71.15;101521.84;5108407;28;20500;-76
2021/03/15 09:59:29;;;;;;;14.95;2.35;;;;;;;8.92;69.33;101520.03;5108435;28;20027;-77
2021/03/15 10:01:55;;;;;;;10.93;2.00;;;;;;;10.00;66.36;101519.13;5120766;28;20055;-76
2021/03/15 10:04:20;;;;;;;17.50;2.03;;;;;;;10.50;62.78;101531.25;5121219;28;20400;-76
2021/03/15 10:06:45;;;;;;;11.13;1.77;;;;;;;9.85;63.36;101521.13;5118058;27;20293;-78
2021/03/15 10:09:11;;;;;;;8.18;1.30;;;;;;;8.88;65.12;101520.72;5106465;28;20406;-76
2021/03/15 10:11:43;;;;;;;10.85;1.70;;;;;;;9.43;66.80;101538.31;5125044;28;20030;-77
2021/03/15 10:14:09;;;;;;;9.73;1.60;;;;;;;9.10;64.84;101533.56;5125881;28;20404;-76
2021/03/15 10:16:34;;;;;;;6.28;1.30;;;;;;;8.58;68.80;101551.91;5126871;27;20031;-77
2021/03/15 10:18:59;;;;;;;13.10;1.40;;;;;;;8.53;67.75;101532.06;5114031;28;20027;-77
2021/03/15 10:21:31;;;;;;;8.07;1.40;;;;;;;10.02;63.75;101547.41;5112661;28;20592;-76
2021/03/15 10:23:57;;;;;;;6.10;1.00;;;;;;;9.67;61.21;101524.75;5125691;28;20385;-78
2021/03/15 10:26:22;;;;;;;7.32;0.75;;;;;;;9.34;64.35;101546.50;5126077;27;20026;-77
2021/03/15 10:28:50;;;;;;;9.38;1.50;;;;;;;10.22;61.66;101544.81;5122722;28;20015;-77
2021/03/15 10:31:18;;;;;;;13.03;1.47;;;;;;;11.81;59.91;101553.56;5113334;27;20023;-76
2021/03/15 10:33:44;;;;;;;12.82;1.75;;;;;;;12.03;55.95;101554.16;5125300;27;20020;-77
2021/03/15 10:36:11;;;;;;;9.88;1.52;;;;;;;10.53;56.79;101554.47;5126441;27;20096;-78
2021/03/15 10:38:37;;;;;;;9.90;1.35;;;;;;;9.42;61.39;101559.63;5125282;28;20114;-77
2021/03/15 10:41:03;;;;;;;8.45;1.23;;;;;;;8.52;64.22;101559.34;5116999;27;20494;-77
2021/03/15 10:43:28;;;;;;;5.43;2.20;;;;;;;8.18;67.75;101576.56;5106331;28;20030;-76
2021/03/15 10:45:53;;;;;;;7.32;1.13;;;;;;;7.93;67.55;101587.34;5121080;27;20388;-77
2021/03/15 10:48:25;;;;;;;6.90;1.20;;;;;;;7.93;70.60;101590.78;5113319;28;20030;-77
2021/03/15 10:50:54;;;;;;;11.70;1.60;;;;;;;7.86;68.14;101586.19;5110990;28;20035;-77
2021/03/15 10:53:22;;;;;;;9.00;1.40;;;;;;;7.92;69.94;101599.25;5110918;28;20031;-76
2021/03/15 10:55:49;;;;;;;12.97;1.70;;;;;;;8.18;69.55;101589.34;5111221;28;20045;-77
2021/03/15 10:58:18;;;;;;;8.70;1.53;;;;;;;8.52;69.50;101581.50;5112407;28;20043;-76
2021/03/15 11:00:48;;;;;;;13.27;1.50;;;;;;;8.66;69.05;101588.97;5107877;28;20430;-78
2021/03/15 11:03:29;;;;;;;21.60;2.80;;;;;;;8.95;68.16;101585.09;5092441;28;20035;-76
2021/03/15 11:06:03;;;;;;;11.93;1.53;;;;;;;9.73;67.05;101590.81;5101293;28;20031;-77
2021/03/15 11:08:30;;;;;;;15.30;1.80;;;;;;;10.65;64.08;101584.84;5111496;28;20503;-76
2021/03/15 11:11:12;;;;;;;15.10;1.70;;;;;;;10.57;63.01;101573.44;5110332;28;20087;-76
2021/03/15 11:13:42;;;;;;;13.90;2.10;;;;;;;9.99;60.33;101577.28;5100398;28;20072;-77
2021/03/15 11:16:24;;;;;;;10.02;1.60;;;;;;;10.17;61.11;101589.94;5090044;28;20481;-76
2021/03/15 11:19:06;;;;;;;9.47;1.40;;;;;;;10.23;60.52;101589.31;5101753;28;20035;-77
2021/03/15 11:21:35;;;;;;;8.33;1.43;;;;;;;9.98;60.23;101590.94;5101109;28;20023;-76
2021/03/15 11:24:01;;;;;;;11.27;1.53;;;;;;;9.84;60.19;101598.94;5098910;28;20039;-76
2021/03/15 11:26:27;;;;;;;11.07;1.70;;;;;;;9.73;60.77;101600.19;5107643;28;20497;-78
2021/03/15 11:28:55;;;;;;;13.35;1.77;;;;;;;10.07;61.12;101595.53;5105168;28;20077;-77
2021/03/15 11:31:23;;;;;;;7.40;1.47;;;;;;;9.70;60.31;101603.50;5105339;28;20020;-77
2021/03/15 11:33:51;;;;;;;8.67;1.73;;;;;;;10.62;58.18;101595.03;5105157;28;20031;-77
2021/03/15 11:36:20;;;;;;;11.87;1.37;;;;;;;9.60;58.97;101601.41;5106770;28;20054;-76
2021/03/15 11:38:55;;;;;;;16.93;2.20;;;;;;;9.42;62.59;101616.06;5110961;28;20075;-76